sensor_id;sensor_type;location;lat;lon;timestamp;pressure;altitude;pressure_sealevel;temperature;humidity
61568;BME280;47462;59.172;17.196;2022-11-14T00:02:22;102406.38;;;5.69;89.68
61568;BME280;47462;59.172;17.196;2022-11-14T00:04:48;102432.63;;;5.87;89.72
61568;BME280;47462;59.172;17.196;2022-11-14T00:07:14;102444.94;;;5.98;89.71
61568;BME280;47462;59.172;17.196;2022-11-14T00:09:39;102486.00;;;6.22;89.58
61568;BME280;47462;59.172;17.196;2022-11-14T00:12:08;102494.88;;;6.36;89.73
61568;BME280;47462;59.172;17.196;2022-11-14T00:14:33;102450.41;;;6.13;89.38
61568;BME280;47462;59.172;17.196;2022-11-14T00:16:59;102445.84;;;6.01;89.57
61568;BME280;47462;59.172;17.196;2022-11-14T00:19:24;102477.44;;;6.28;90.09
61568;BME280;47462;59.172;17.196;2022-11-14T00:21:49;102440.06;;;6.15;89.66
61568;BME280;47462;59.172;17.196;2022-11-14T00:24:17;102476.69;;;6.35;89.69
61568;BME280;47462;59.172;17.196;2022-11-14T00:26:42;102467.22;;;6.37;89.53
61568;BME280;47462;59.172;17.196;2022-11-14T00:29:10;102471.56;;;6.38;89.35
61568;BME280;47462;59.172;17.196;2022-11-14T00:31:35;102428.88;;;6.17;89.58
61568;BME280;47462;59.172;17.196;2022-11-14T00:34:00;102407.06;;;6.06;89.38
61568;BME280;47462;59.172;17.196;2022-11-14T00:36:26;102372.94;;;5.83;89.58
61568;BME280;47462;59.172;17.196;2022-11-14T00:38:52;102426.34;;;6.20;89.83
61568;BME280;47462;59.172;17.196;2022-11-14T00:41:18;102442.06;;;6.31;89.65
61568;BME280;47462;59.172;17.196;2022-11-14T00:43:44;102445.72;;;6.44;89.40
61568;BME280;47462;59.172;17.196;2022-11-14T00:46:09;102429.84;;;6.24;89.59
61568;BME280;47462;59.172;17.196;2022-11-14T00:48:35;102450.97;;;6.47;89.71
61568;BME280;47462;59.172;17.196;2022-11-14T00:51:00;102403.75;;;6.13;89.00
61568;BME280;47462;59.172;17.196;2022-11-14T00:53:26;102454.34;;;6.43;89.23
61568;BME280;47462;59.172;17.196;2022-11-14T00:55:51;102412.59;;;6.28;89.18
61568;BME280;47462;59.172;17.196;2022-11-14T00:58:17;102375.09;;;6.05;89.47
61568;BME280;47462;59.172;17.196;2022-11-14T01:00:42;102438.81;;;6.45;89.22
61568;BME280;47462;59.172;17.196;2022-11-14T01:03:07;102438.84;;;6.46;89.42
61568;BME280;47462;59.172;17.196;2022-11-14T01:05:34;102410.91;;;6.28;89.62
61568;BME280;47462;59.172;17.196;2022-11-14T01:08:04;102423.19;;;6.40;89.33
61568;BME280;47462;59.172;17.196;2022-11-14T01:10:29;102365.63;;;6.09;89.03
61568;BME280;47462;59.172;17.196;2022-11-14T01:12:55;102444.97;;;6.50;89.29
61568;BME280;47462;59.172;17.196;2022-11-14T01:15:20;102441.47;;;6.49;89.19
61568;BME280;47462;59.172;17.196;2022-11-14T01:17:45;102340.22;;;5.89;89.23
61568;BME280;47462;59.172;17.196;2022-11-14T01:20:11;102416.31;;;6.42;89.15
61568;BME280;47462;59.172;17.196;2022-11-14T01:22:37;102222.63;;;5.28;89.47
61568;BME280;47462;59.172;17.196;2022-11-14T01:25:02;102348.31;;;6.05;89.42
61568;BME280;47462;59.172;17.196;2022-11-14T01:27:30;102428.56;;;6.52;89.31
61568;BME280;47462;59.172;17.196;2022-11-14T01:29:56;102261.97;;;5.57;89.07
61568;BME280;47462;59.172;17.196;2022-11-14T01:32:21;102418.19;;;6.52;89.40
61568;BME280;47462;59.172;17.196;2022-11-14T01:34:46;102399.00;;;6.41;89.33
61568;BME280;47462;59.172;17.196;2022-11-14T01:37:12;102414.78;;;6.55;89.41
61568;BME280;47462;59.172;17.196;2022-11-14T01:39:37;102415.63;;;6.55;89.44
61568;BME280;47462;59.172;17.196;2022-11-14T01:42:03;102416.47;;;6.51;89.12
61568;BME280;47462;59.172;17.196;2022-11-14T01:44:47;102406.03;;;6.48;89.01
61568;BME280;47462;59.172;17.196;2022-11-14T01:47:16;102406.09;;;6.51;89.15
61568;BME280;47462;59.172;17.196;2022-11-14T01:49:45;102408.75;;;6.56;89.05
61568;BME280;47462;59.172;17.196;2022-11-14T01:52:15;102404.41;;;6.56;89.08
61568;BME280;47462;59.172;17.196;2022-11-14T01:54:45;102319.00;;;6.09;88.95
61568;BME280;47462;59.172;17.196;2022-11-14T01:57:15;102399.31;;;6.61;89.00
61568;BME280;47462;59.172;17.196;2022-11-14T01:59:46;102264.94;;;5.80;89.05
61568;BME280;47462;59.172;17.196;2022-11-14T02:02:21;102390.63;;;6.57;89.32
61568;BME280;47462;59.172;17.196;2022-11-14T02:04:55;102341.63;;;6.19;89.06
61568;BME280;47462;59.172;17.196;2022-11-14T02:07:23;102397.59;;;6.60;89.39
61568;BME280;47462;59.172;17.196;2022-11-14T02:09:49;102353.16;;;6.40;89.18
61568;BME280;47462;59.172;17.196;2022-11-14T02:12:16;102380.31;;;6.62;89.14
61568;BME280;47462;59.172;17.196;2022-11-14T02:14:44;102378.56;;;6.63;89.11
61568;BME280;47462;59.172;17.196;2022-11-14T02:17:12;102367.28;;;6.57;89.10
61568;BME280;47462;59.172;17.196;2022-11-14T02:19:53;102331.53;;;6.38;88.98
61568;BME280;47462;59.172;17.196;2022-11-14T02:22:19;102347.31;;;6.53;88.89
61568;BME280;47462;59.172;17.196;2022-11-14T02:24:44;102346.44;;;6.51;88.97
61568;BME280;47462;59.172;17.196;2022-11-14T02:27:11;102349.94;;;6.56;89.41
61568;BME280;47462;59.172;17.196;2022-11-14T02:29:38;102275.88;;;6.14;89.29
61568;BME280;47462;59.172;17.196;2022-11-14T02:32:04;102324.75;;;6.48;89.34
61568;BME280;47462;59.172;17.196;2022-11-14T02:34:29;102337.06;;;6.63;89.04
61568;BME280;47462;59.172;17.196;2022-11-14T02:36:55;102300.53;;;6.47;88.95
61568;BME280;47462;59.172;17.196;2022-11-14T02:39:21;102335.22;;;6.55;89.22
61568;BME280;47462;59.172;17.196;2022-11-14T02:41:46;102325.72;;;6.54;89.64
61568;BME280;47462;59.172;17.196;2022-11-14T02:44:12;102322.22;;;6.52;89.72
61568;BME280;47462;59.172;17.196;2022-11-14T02:46:37;102276.09;;;6.30;89.87
61568;BME280;47462;59.172;17.196;2022-11-14T02:49:02;102304.94;;;6.53;90.15
61568;BME280;47462;59.172;17.196;2022-11-14T02:51:28;102309.38;;;6.58;90.07
61568;BME280;47462;59.172;17.196;2022-11-14T02:53:53;102268.38;;;6.33;90.17
61568;BME280;47462;59.172;17.196;2022-11-14T02:56:19;102296.34;;;6.57;90.05
61568;BME280;47462;59.172;17.196;2022-11-14T02:58:44;102319.03;;;6.72;90.20
61568;BME280;47462;59.172;17.196;2022-11-14T03:01:09;102297.34;;;6.67;90.53
61568;BME280;47462;59.172;17.196;2022-11-14T03:03:35;102304.50;;;6.83;90.18
61568;BME280;47462;59.172;17.196;2022-11-14T03:06:01;102309.72;;;6.86;90.46
61568;BME280;47462;59.172;17.196;2022-11-14T03:08:27;102304.56;;;6.89;90.28
61568;BME280;47462;59.172;17.196;2022-11-14T03:10:53;102295.84;;;6.84;90.53
61568;BME280;47462;59.172;17.196;2022-11-14T03:13:18;102296.75;;;6.86;90.31
61568;BME280;47462;59.172;17.196;2022-11-14T03:15:44;102271.50;;;6.73;90.24
61568;BME280;47462;59.172;17.196;2022-11-14T03:18:10;102268.94;;;6.77;90.23
61568;BME280;47462;59.172;17.196;2022-11-14T03:20:35;102294.28;;;6.97;90.29
61568;BME280;47462;59.172;17.196;2022-11-14T03:23:00;102224.50;;;6.48;90.56
61568;BME280;47462;59.172;17.196;2022-11-14T03:25:26;102296.00;;;7.00;90.51
61568;BME280;47462;59.172;17.196;2022-11-14T03:27:51;102283.88;;;6.95;90.24
61568;BME280;47462;59.172;17.196;2022-11-14T03:30:17;102277.63;;;6.81;90.46
61568;BME280;47462;59.172;17.196;2022-11-14T03:32:42;102300.28;;;6.94;90.74
61568;BME280;47462;59.172;17.196;2022-11-14T03:35:08;102284.69;;;6.93;90.82
61568;BME280;47462;59.172;17.196;2022-11-14T03:37:34;102285.44;;;6.84;90.90
61568;BME280;47462;59.172;17.196;2022-11-14T03:39:59;102282.13;;;6.94;90.84
61568;BME280;47462;59.172;17.196;2022-11-14T03:42:25;102287.28;;;6.93;91.00
61568;BME280;47462;59.172;17.196;2022-11-14T03:44:50;102272.34;;;6.73;91.22
61568;BME280;47462;59.172;17.196;2022-11-14T03:47:15;102217.50;;;6.44;91.35
61568;BME280;47462;59.172;17.196;2022-11-14T03:49:41;102290.75;;;6.93;91.21
61568;BME280;47462;59.172;17.196;2022-11-14T03:52:09;102282.16;;;6.97;91.33
61568;BME280;47462;59.172;17.196;2022-11-14T03:54:35;102282.19;;;7.01;91.46
61568;BME280;47462;59.172;17.196;2022-11-14T03:57:00;102274.44;;;7.04;91.23
61568;BME280;47462;59.172;17.196;2022-11-14T03:59:26;102186.53;;;6.56;91.03
61568;BME280;47462;59.172;17.196;2022-11-14T04:01:51;102276.22;;;7.06;91.08
61568;BME280;47462;59.172;17.196;2022-11-14T04:04:16;102284.06;;;7.11;91.11
61568;BME280;47462;59.172;17.196;2022-11-14T04:06:42;102090.69;;;5.94;90.97
61568;BME280;47462;59.172;17.196;2022-11-14T04:09:09;102246.53;;;6.86;91.03
61568;BME280;47462;59.172;17.196;2022-11-14T04:11:34;102207.41;;;6.66;91.00
61568;BME280;47462;59.172;17.196;2022-11-14T04:14:00;102197.84;;;6.60;91.23
61568;BME280;47462;59.172;17.196;2022-11-14T04:16:25;102231.72;;;6.74;90.89
61568;BME280;47462;59.172;17.196;2022-11-14T04:18:50;102255.31;;;6.94;91.08
61568;BME280;47462;59.172;17.196;2022-11-14T04:21:16;102263.13;;;6.95;90.97
61568;BME280;47462;59.172;17.196;2022-11-14T04:23:41;102256.19;;;6.97;90.78
61568;BME280;47462;59.172;17.196;2022-11-14T04:26:07;102272.81;;;7.15;90.65
61568;BME280;47462;59.172;17.196;2022-11-14T04:28:32;102275.38;;;7.12;91.06
61568;BME280;47462;59.172;17.196;2022-11-14T04:30:57;102219.66;;;6.79;90.68
61568;BME280;47462;59.172;17.196;2022-11-14T04:33:24;102182.28;;;6.62;90.56
61568;BME280;47462;59.172;17.196;2022-11-14T04:35:50;102271.06;;;7.11;90.55
61568;BME280;47462;59.172;17.196;2022-11-14T04:38:15;102253.63;;;7.01;90.54
61568;BME280;47462;59.172;17.196;2022-11-14T04:40:50;102269.31;;;7.08;90.80
61568;BME280;47462;59.172;17.196;2022-11-14T04:43:15;102225.75;;;6.83;90.67
61568;BME280;47462;59.172;17.196;2022-11-14T04:45:41;102099.53;;;6.06;90.58
61568;BME280;47462;59.172;17.196;2022-11-14T04:48:06;102266.66;;;7.05;90.34
61568;BME280;47462;59.172;17.196;2022-11-14T04:50:31;102274.53;;;7.11;90.53
61568;BME280;47462;59.172;17.196;2022-11-14T04:52:57;102251.84;;;6.96;90.44
61568;BME280;47462;59.172;17.196;2022-11-14T04:55:22;102263.28;;;7.12;90.22
61568;BME280;47462;59.172;17.196;2022-11-14T04:57:55;102211.84;;;6.74;90.02
61568;BME280;47462;59.172;17.196;2022-11-14T05:00:21;102235.34;;;6.90;90.03
61568;BME280;47462;59.172;17.196;2022-11-14T05:02:46;102270.94;;;7.00;90.14
61568;BME280;47462;59.172;17.196;2022-11-14T05:05:12;102253.53;;;6.91;90.20
61568;BME280;47462;59.172;17.196;2022-11-14T05:07:37;102139.38;;;6.15;90.13
61568;BME280;47462;59.172;17.196;2022-11-14T05:10:03;102260.56;;;7.00;90.36
61568;BME280;47462;59.172;17.196;2022-11-14T05:12:29;102219.66;;;6.77;90.26
61568;BME280;47462;59.172;17.196;2022-11-14T05:14:55;102152.59;;;6.36;90.34
61568;BME280;47462;59.172;17.196;2022-11-14T05:17:20;102246.66;;;6.96;90.03
61568;BME280;47462;59.172;17.196;2022-11-14T05:19:45;102187.44;;;6.58;90.28
61568;BME280;47462;59.172;17.196;2022-11-14T05:22:11;102234.50;;;6.91;90.48
61568;BME280;47462;59.172;17.196;2022-11-14T05:24:36;102255.44;;;7.05;90.07
61568;BME280;47462;59.172;17.196;2022-11-14T05:27:02;102257.16;;;7.06;90.23
61568;BME280;47462;59.172;17.196;2022-11-14T05:29:27;102232.78;;;6.93;90.10
61568;BME280;47462;59.172;17.196;2022-11-14T05:31:53;102251.94;;;7.04;90.30
61568;BME280;47462;59.172;17.196;2022-11-14T05:34:18;102253.69;;;7.04;90.04
61568;BME280;47462;59.172;17.196;2022-11-14T05:36:43;102254.56;;;7.06;90.26
61568;BME280;47462;59.172;17.196;2022-11-14T05:39:09;102212.75;;;6.81;90.03
61568;BME280;47462;59.172;17.196;2022-11-14T05:41:34;102259.75;;;7.06;90.14
61568;BME280;47462;59.172;17.196;2022-11-14T05:44:00;102256.31;;;7.07;90.24
61568;BME280;47462;59.172;17.196;2022-11-14T05:46:25;102199.66;;;6.70;89.92
61568;BME280;47462;59.172;17.196;2022-11-14T05:48:50;102244.03;;;6.93;89.90
61568;BME280;47462;59.172;17.196;2022-11-14T05:51:16;102091.75;;;6.05;89.58
61568;BME280;47462;59.172;17.196;2022-11-14T05:53:41;102263.25;;;7.08;90.25
61568;BME280;47462;59.172;17.196;2022-11-14T05:56:10;102259.78;;;7.09;89.87
61568;BME280;47462;59.172;17.196;2022-11-14T05:58:35;102262.38;;;7.09;90.09
61568;BME280;47462;59.172;17.196;2022-11-14T06:03:32;102259.78;;;7.09;89.82
61568;BME280;47462;59.172;17.196;2022-11-14T06:06:02;102255.47;;;7.08;90.24
61568;BME280;47462;59.172;17.196;2022-11-14T06:08:29;102261.53;;;7.10;89.93
61568;BME280;47462;59.172;17.196;2022-11-14T06:10:55;102218.00;;;6.86;90.01
61568;BME280;47462;59.172;17.196;2022-11-14T06:13:20;102256.34;;;7.10;89.92
61568;BME280;47462;59.172;17.196;2022-11-14T06:15:49;102257.19;;;7.09;89.92
61568;BME280;47462;59.172;17.196;2022-11-14T06:18:14;102264.00;;;6.97;90.21
61568;BME280;47462;59.172;17.196;2022-11-14T06:20:39;102219.69;;;6.81;89.93
61568;BME280;47462;59.172;17.196;2022-11-14T06:23:05;102230.19;;;6.93;89.92
61568;BME280;47462;59.172;17.196;2022-11-14T06:25:30;102258.09;;;7.12;90.28
61568;BME280;47462;59.172;17.196;2022-11-14T06:27:57;102228.47;;;6.93;89.88
61568;BME280;47462;59.172;17.196;2022-11-14T06:30:22;102249.38;;;7.09;89.87
61568;BME280;47462;59.172;17.196;2022-11-14T06:32:48;102248.53;;;7.08;89.95
61568;BME280;47462;59.172;17.196;2022-11-14T06:35:13;102221.56;;;6.92;90.02
61568;BME280;47462;59.172;17.196;2022-11-14T06:37:39;102237.28;;;7.08;89.93
61568;BME280;47462;59.172;17.196;2022-11-14T06:40:05;102231.22;;;7.09;90.02
61568;BME280;47462;59.172;17.196;2022-11-14T06:42:30;102184.22;;;6.81;90.00
61568;BME280;47462;59.172;17.196;2022-11-14T06:44:56;102232.97;;;7.08;89.95
61568;BME280;47462;59.172;17.196;2022-11-14T06:47:21;102208.56;;;6.91;90.15
61568;BME280;47462;59.172;17.196;2022-11-14T06:49:46;102130.25;;;6.49;90.23
61568;BME280;47462;59.172;17.196;2022-11-14T06:52:12;102202.53;;;6.96;90.06
61568;BME280;47462;59.172;17.196;2022-11-14T06:54:37;102197.34;;;6.96;90.22
61568;BME280;47462;59.172;17.196;2022-11-14T06:57:03;102228.69;;;7.15;90.19
61568;BME280;47462;59.172;17.196;2022-11-14T06:59:28;102133.88;;;6.62;90.03
61568;BME280;47462;59.172;17.196;2022-11-14T07:01:53;102231.25;;;7.13;90.14
61568;BME280;47462;59.172;17.196;2022-11-14T07:04:19;102171.25;;;6.81;90.22
61568;BME280;47462;59.172;17.196;2022-11-14T07:06:44;102128.50;;;6.45;89.92
61568;BME280;47462;59.172;17.196;2022-11-14T07:09:10;102213.75;;;6.92;89.93
61568;BME280;47462;59.172;17.196;2022-11-14T07:11:36;102217.28;;;6.99;90.01
61568;BME280;47462;59.172;17.196;2022-11-14T07:14:02;102233.00;;;7.14;90.27
61568;BME280;47462;59.172;17.196;2022-11-14T07:16:30;102183.47;;;6.91;90.41
61568;BME280;47462;59.172;17.196;2022-11-14T07:18:57;102216.59;;;7.17;90.12
61568;BME280;47462;59.172;17.196;2022-11-14T07:21:23;102223.59;;;7.24;89.92
61568;BME280;47462;59.172;17.196;2022-11-14T07:23:49;102200.94;;;7.08;89.84
61568;BME280;47462;59.172;17.196;2022-11-14T07:26:14;102200.13;;;7.17;89.69
61568;BME280;47462;59.172;17.196;2022-11-14T07:28:42;102227.13;;;7.32;90.03
61568;BME280;47462;59.172;17.196;2022-11-14T07:31:18;102230.59;;;7.33;89.51
61568;BME280;47462;59.172;17.196;2022-11-14T07:33:45;102221.94;;;7.32;89.64
61568;BME280;47462;59.172;17.196;2022-11-14T07:36:12;102229.72;;;7.29;89.54
61568;BME280;47462;59.172;17.196;2022-11-14T07:38:38;102197.41;;;7.03;89.56
61568;BME280;47462;59.172;17.196;2022-11-14T07:41:06;102168.72;;;6.87;89.65
61568;BME280;47462;59.172;17.196;2022-11-14T07:43:32;102211.44;;;7.19;89.63
61568;BME280;47462;59.172;17.196;2022-11-14T07:46:02;102160.97;;;6.92;89.92
61568;BME280;47462;59.172;17.196;2022-11-14T07:48:28;102209.75;;;7.25;90.02
61568;BME280;47462;59.172;17.196;2022-11-14T07:51:01;102206.31;;;7.26;89.58
61568;BME280;47462;59.172;17.196;2022-11-14T07:53:28;102200.16;;;7.18;89.82
61568;BME280;47462;59.172;17.196;2022-11-14T07:55:54;102194.06;;;7.13;89.77
61568;BME280;47462;59.172;17.196;2022-11-14T07:58:19;102209.75;;;7.24;89.80
61568;BME280;47462;59.172;17.196;2022-11-14T08:00:45;102206.34;;;7.29;90.11
61568;BME280;47462;59.172;17.196;2022-11-14T08:03:11;102192.44;;;7.24;89.94
61568;BME280;47462;59.172;17.196;2022-11-14T08:05:36;102206.41;;;7.39;90.04
61568;BME280;47462;59.172;17.196;2022-11-14T08:08:02;102169.88;;;7.19;89.78
61568;BME280;47462;59.172;17.196;2022-11-14T08:10:28;102157.75;;;7.16;89.78
61568;BME280;47462;59.172;17.196;2022-11-14T08:12:58;102155.94;;;7.09;89.76
61568;BME280;47462;59.172;17.196;2022-11-14T08:15:25;102171.53;;;7.12;89.97
61568;BME280;47462;59.172;17.196;2022-11-14T08:17:51;102184.66;;;7.24;89.88
61568;BME280;47462;59.172;17.196;2022-11-14T08:20:17;102144.63;;;7.01;89.89
61568;BME280;47462;59.172;17.196;2022-11-14T08:22:42;102194.25;;;7.35;89.88
61568;BME280;47462;59.172;17.196;2022-11-14T08:25:08;102159.56;;;7.25;90.23
61568;BME280;47462;59.172;17.196;2022-11-14T08:27:34;102185.69;;;7.45;90.13
61568;BME280;47462;59.172;17.196;2022-11-14T08:29:59;102170.94;;;7.44;90.14
61568;BME280;47462;59.172;17.196;2022-11-14T08:32:25;102179.69;;;7.52;89.75
61568;BME280;47462;59.172;17.196;2022-11-14T08:34:50;102179.66;;;7.46;89.90
61568;BME280;47462;59.172;17.196;2022-11-14T08:37:16;102181.34;;;7.44;90.18
61568;BME280;47462;59.172;17.196;2022-11-14T08:39:41;102183.09;;;7.45;90.15
61568;BME280;47462;59.172;17.196;2022-11-14T08:42:06;102133.56;;;7.23;90.02
61568;BME280;47462;59.172;17.196;2022-11-14T08:44:32;102148.44;;;7.40;90.20
61568;BME280;47462;59.172;17.196;2022-11-14T08:46:57;102147.53;;;7.38;89.78
61568;BME280;47462;59.172;17.196;2022-11-14T08:49:25;102151.06;;;7.46;89.83
61568;BME280;47462;59.172;17.196;2022-11-14T08:51:53;102130.06;;;7.21;90.06
61568;BME280;47462;59.172;17.196;2022-11-14T08:54:19;102169.31;;;7.55;89.87
61568;BME280;47462;59.172;17.196;2022-11-14T08:56:45;102166.75;;;7.57;90.03
61568;BME280;47462;59.172;17.196;2022-11-14T08:59:10;102161.53;;;7.55;89.59
61568;BME280;47462;59.172;17.196;2022-11-14T09:01:36;102143.25;;;7.41;90.13
61568;BME280;47462;59.172;17.196;2022-11-14T09:04:01;102158.91;;;7.54;90.00
61568;BME280;47462;59.172;17.196;2022-11-14T09:06:27;102111.09;;;7.28;89.98
61568;BME280;47462;59.172;17.196;2022-11-14T09:08:53;102151.16;;;7.58;89.99
61568;BME280;47462;59.172;17.196;2022-11-14T09:11:18;102150.25;;;7.56;89.85
61568;BME280;47462;59.172;17.196;2022-11-14T09:13:43;102142.47;;;7.59;90.06
61568;BME280;47462;59.172;17.196;2022-11-14T09:16:09;102148.56;;;7.58;90.16
61568;BME280;47462;59.172;17.196;2022-11-14T09:18:34;102082.47;;;7.18;90.11
61568;BME280;47462;59.172;17.196;2022-11-14T09:21:05;102120.69;;;7.36;89.94
61568;BME280;47462;59.172;17.196;2022-11-14T09:23:31;102151.19;;;7.61;90.23
61568;BME280;47462;59.172;17.196;2022-11-14T09:25:57;102106.00;;;7.41;90.20
61568;BME280;47462;59.172;17.196;2022-11-14T09:28:27;102118.19;;;7.48;90.10
61568;BME280;47462;59.172;17.196;2022-11-14T09:30:52;102085.19;;;7.35;90.25
61568;BME280;47462;59.172;17.196;2022-11-14T09:33:18;102093.94;;;7.49;90.50
61568;BME280;47462;59.172;17.196;2022-11-14T09:35:43;102146.13;;;7.84;90.11
61568;BME280;47462;59.172;17.196;2022-11-14T09:38:10;102123.53;;;7.73;89.97
61568;BME280;47462;59.172;17.196;2022-11-14T09:43:39;102139.19;;;7.88;89.91
61568;BME280;47462;59.172;17.196;2022-11-14T09:46:47;102138.34;;;7.88;89.49
61568;BME280;47462;59.172;17.196;2022-11-14T09:49:37;102136.56;;;7.83;89.35
61568;BME280;47462;59.172;17.196;2022-11-14T09:52:37;102130.53;;;7.83;89.50
61568;BME280;47462;59.172;17.196;2022-11-14T09:55:12;102144.38;;;7.85;89.08
61568;BME280;47462;59.172;17.196;2022-11-14T09:57:42;102060.16;;;7.43;89.16
61568;BME280;47462;59.172;17.196;2022-11-14T10:00:20;102138.41;;;7.97;89.10
61568;BME280;47462;59.172;17.196;2022-11-14T10:08:50;102116.75;;;8.02;89.20
61568;BME280;47462;59.172;17.196;2022-11-14T10:16:56;102115.88;;;8.03;88.87
61568;BME280;47462;59.172;17.196;2022-11-14T10:26:14;102110.66;;;7.99;88.51
61568;BME280;47462;59.172;17.196;2022-11-14T10:35:49;102068.22;;;7.98;88.61
61568;BME280;47462;59.172;17.196;2022-11-14T10:38:25;102102.94;;;8.17;88.37
61568;BME280;47462;59.172;17.196;2022-11-14T10:41:04;102108.09;;;8.03;88.64
61568;BME280;47462;59.172;17.196;2022-11-14T10:46:06;102100.28;;;8.00;88.77
61568;BME280;47462;59.172;17.196;2022-11-14T10:48:39;102105.50;;;8.11;88.75
61568;BME280;47462;59.172;17.196;2022-11-14T10:51:32;102097.72;;;8.10;88.84
61568;BME280;47462;59.172;17.196;2022-11-14T10:54:09;102103.81;;;8.13;88.69
61568;BME280;47462;59.172;17.196;2022-11-14T10:56:51;102096.00;;;8.12;88.57
61568;BME280;47462;59.172;17.196;2022-11-14T10:59:18;102053.44;;;7.94;88.84
61568;BME280;47462;59.172;17.196;2022-11-14T11:01:52;102082.13;;;8.13;88.68
61568;BME280;47462;59.172;17.196;2022-11-14T11:04:31;102066.47;;;8.03;88.78
61568;BME280;47462;59.172;17.196;2022-11-14T11:07:17;102080.38;;;8.06;88.79
61568;BME280;47462;59.172;17.196;2022-11-14T11:10:03;102076.91;;;8.08;88.89
61568;BME280;47462;59.172;17.196;2022-11-14T11:12:50;102034.34;;;7.81;89.08
61568;BME280;47462;59.172;17.196;2022-11-14T11:15:29;101999.63;;;7.65;88.83
61568;BME280;47462;59.172;17.196;2022-11-14T11:18:04;101944.97;;;7.44;88.79
61568;BME280;47462;59.172;17.196;2022-11-14T11:20:38;102061.34;;;8.19;88.97
61568;BME280;47462;59.172;17.196;2022-11-14T11:25:35;102058.75;;;8.25;88.73
61568;BME280;47462;59.172;17.196;2022-11-14T11:28:17;102056.16;;;8.25;88.91
61568;BME280;47462;59.172;17.196;2022-11-14T11:31:02;102060.50;;;8.26;88.88
61568;BME280;47462;59.172;17.196;2022-11-14T11:33:36;102044.03;;;8.27;88.67
61568;BME280;47462;59.172;17.196;2022-11-14T11:36:05;102027.50;;;8.14;88.77
61568;BME280;47462;59.172;17.196;2022-11-14T11:38:32;102044.88;;;8.26;88.61
61568;BME280;47462;59.172;17.196;2022-11-14T11:41:14;101936.38;;;7.60;88.33
61568;BME280;47462;59.172;17.196;2022-11-14T11:44:02;102035.28;;;8.07;88.38
61568;BME280;47462;59.172;17.196;2022-11-14T11:49:55;102031.84;;;8.11;89.02
61568;BME280;47462;59.172;17.196;2022-11-14T11:52:39;101998.00;;;7.95;88.94
61568;BME280;47462;59.172;17.196;2022-11-14T11:55:40;102010.16;;;7.98;88.90
61568;BME280;47462;59.172;17.196;2022-11-14T11:58:12;102027.47;;;7.96;89.18
61568;BME280;47462;59.172;17.196;2022-11-14T12:00:42;101951.16;;;7.69;89.54
61568;BME280;47462;59.172;17.196;2022-11-14T12:03:12;102017.09;;;8.13;89.38
61568;BME280;47462;59.172;17.196;2022-11-14T12:05:41;102018.00;;;8.16;89.21
61568;BME280;47462;59.172;17.196;2022-11-14T12:08:23;101998.91;;;8.11;89.14
61568;BME280;47462;59.172;17.196;2022-11-14T12:10:52;101989.38;;;8.09;89.16
61568;BME280;47462;59.172;17.196;2022-11-14T12:13:41;102001.53;;;8.17;89.03
61568;BME280;47462;59.172;17.196;2022-11-14T12:19:12;101987.66;;;8.17;88.90
61568;BME280;47462;59.172;17.196;2022-11-14T12:29:47;101974.66;;;8.15;88.97
61568;BME280;47462;59.172;17.196;2022-11-14T12:32:44;101981.59;;;8.12;88.90
61568;BME280;47462;59.172;17.196;2022-11-14T12:35:24;101860.16;;;7.43;88.81
61568;BME280;47462;59.172;17.196;2022-11-14T12:37:54;101962.50;;;8.10;89.12
61568;BME280;47462;59.172;17.196;2022-11-14T12:41:04;101956.44;;;8.11;89.21
61568;BME280;47462;59.172;17.196;2022-11-14T12:43:35;101960.81;;;8.18;89.39
61568;BME280;47462;59.172;17.196;2022-11-14T12:46:06;101966.00;;;8.21;88.96
61568;BME280;47462;59.172;17.196;2022-11-14T12:48:38;101809.88;;;7.30;89.00
61568;BME280;47462;59.172;17.196;2022-11-14T12:53:53;101954.69;;;7.97;89.09
61568;BME280;47462;59.172;17.196;2022-11-14T12:59:08;101960.78;;;8.09;89.17
61568;BME280;47462;59.172;17.196;2022-11-14T13:02:07;101959.91;;;8.11;88.91
61568;BME280;47462;59.172;17.196;2022-11-14T13:07:32;101954.69;;;8.10;88.75
61568;BME280;47462;59.172;17.196;2022-11-14T13:10:12;101961.66;;;8.11;88.85
61568;BME280;47462;59.172;17.196;2022-11-14T13:12:55;101926.97;;;8.01;88.73
61568;BME280;47462;59.172;17.196;2022-11-14T13:15:53;101926.09;;;8.03;88.62
61568;BME280;47462;59.172;17.196;2022-11-14T13:21:37;101916.59;;;7.99;88.73
61568;BME280;47462;59.172;17.196;2022-11-14T13:24:15;101911.38;;;8.02;88.75
61568;BME280;47462;59.172;17.196;2022-11-14T13:26:48;101898.38;;;7.96;88.44
61568;BME280;47462;59.172;17.196;2022-11-14T13:29:45;101934.81;;;8.18;88.47
61568;BME280;47462;59.172;17.196;2022-11-14T13:32:11;101924.41;;;8.21;88.77
61568;BME280;47462;59.172;17.196;2022-11-14T13:34:52;101923.50;;;8.13;88.77
61568;BME280;47462;59.172;17.196;2022-11-14T13:40:36;101920.06;;;8.20;88.52
61568;BME280;47462;59.172;17.196;2022-11-14T13:46:04;101912.25;;;8.17;88.85
61568;BME280;47462;59.172;17.196;2022-11-14T13:51:25;101846.34;;;7.78;89.19
61568;BME280;47462;59.172;17.196;2022-11-14T13:53:52;101837.69;;;7.77;89.11
61568;BME280;47462;59.172;17.196;2022-11-14T13:56:34;101907.03;;;8.06;89.16
61568;BME280;47462;59.172;17.196;2022-11-14T14:06:55;101858.50;;;7.86;89.23
61568;BME280;47462;59.172;17.196;2022-11-14T14:09:56;101866.28;;;7.97;89.27
61568;BME280;47462;59.172;17.196;2022-11-14T14:12:34;101887.09;;;8.11;89.22
61568;BME280;47462;59.172;17.196;2022-11-14T14:15:28;101891.44;;;8.14;89.25
61568;BME280;47462;59.172;17.196;2022-11-14T14:21:07;101888.84;;;8.12;89.48
61568;BME280;47462;59.172;17.196;2022-11-14T14:23:56;101886.25;;;8.14;89.55